Inicio METAR Ruta Wind Satelite

Informe Meteorológico

Fecha: 2020/09/22 21:50:18 Local
2020.09.23 02:50 UTC


Estado: VIGENTE
Operación:VFR
Bogota / Eldorado, Colombia (SKBO) 04-43N 074-09W 2548M
2020.09.23 0200 UTC
Wind: Variable at 2 MPH (2 KT):0
Visibility: greater than 7 mile(s):0
Sky conditions: partly cloudy
Temperature: 51 F (11 C)
Dew Point: 48 F (9 C)
Relative Humidity: 87%
Pressure (altimeter): 30.36 in. Hg (1028 hPa)
ob: SKBO 230200Z VRB02KT 9999 FEW020 SCT200 11/09 A3036 NOSIG
cycle: 2

SKBO 230100Z 02004KT 9999 FEW020 SCT200 13/11 A3034 NOSIG
SKBO 230000Z VRB02KT 9999 FEW020 SCT200 14/11 A3031 NOSIG
SKBO 222300Z 10004KT 9999 FEW025 SCT200 17/06 A3027 NOSIG
SKBO 222200Z 16012KT 110V180 9999 FEW025 SCT200 20/04 A3025NOSIG
SKBO 222100Z 17011KT 150V210 9999 FEW025 BKN200 20/04 A3024NOSIG

2020/09/22 18:43
TAF SKBO 221630Z 2218/2318 VRB02KT 9999 FEW015 SCT090
BECMG 2219/2221 30009KT
BECMG 2302/2304 VRB02KT TX21/2218Z TN05/2310Z